sensor_id;sensor_type;location;lat;lon;timestamp;P1;durP1;ratioP1;P2;durP2;ratioP2
9388;SDS011;4734;52.778;6.798;2024-01-30T00:01:54;8.97;;;7.40;;
9388;SDS011;4734;52.778;6.798;2024-01-30T00:04:39;14.47;;;7.77;;
9388;SDS011;4734;52.778;6.798;2024-01-30T00:07:25;11.10;;;7.57;;
9388;SDS011;4734;52.778;6.798;2024-01-30T00:10:12;9.27;;;7.23;;
9388;SDS011;4734;52.778;6.798;2024-01-30T00:12:58;12.27;;;7.63;;
9388;SDS011;4734;52.778;6.798;2024-01-30T00:15:43;10.17;;;7.37;;
9388;SDS011;4734;52.778;6.798;2024-01-30T00:18:29;8.57;;;7.30;;
9388;SDS011;4734;52.778;6.798;2024-01-30T00:21:14;9.80;;;7.30;;
9388;SDS011;4734;52.778;6.798;2024-01-30T00:24:00;10.60;;;7.60;;
9388;SDS011;4734;52.778;6.798;2024-01-30T00:26:47;10.47;;;7.57;;
9388;SDS011;4734;52.778;6.798;2024-01-30T00:29:32;10.67;;;6.90;;
9388;SDS011;4734;52.778;6.798;2024-01-30T00:32:18;10.20;;;7.53;;
9388;SDS011;4734;52.778;6.798;2024-01-30T00:35:03;10.03;;;7.53;;
9388;SDS011;4734;52.778;6.798;2024-01-30T00:37:50;8.80;;;7.10;;
9388;SDS011;4734;52.778;6.798;2024-01-30T00:40:35;12.30;;;6.83;;
9388;SDS011;4734;52.778;6.798;2024-01-30T00:43:22;9.13;;;7.40;;
9388;SDS011;4734;52.778;6.798;2024-01-30T00:46:08;8.10;;;6.93;;
9388;SDS011;4734;52.778;6.798;2024-01-30T00:48:54;10.23;;;6.97;;
9388;SDS011;4734;52.778;6.798;2024-01-30T00:51:39;10.37;;;7.03;;
9388;SDS011;4734;52.778;6.798;2024-01-30T00:54:25;10.17;;;7.43;;
9388;SDS011;4734;52.778;6.798;2024-01-30T00:57:10;8.90;;;6.77;;
9388;SDS011;4734;52.778;6.798;2024-01-30T00:59:58;7.87;;;7.07;;
9388;SDS011;4734;52.778;6.798;2024-01-30T01:02:43;8.17;;;6.87;;
9388;SDS011;4734;52.778;6.798;2024-01-30T01:05:28;8.37;;;6.63;;
9388;SDS011;4734;52.778;6.798;2024-01-30T01:08:14;9.67;;;7.27;;
9388;SDS011;4734;52.778;6.798;2024-01-30T01:10:59;8.93;;;6.80;;
9388;SDS011;4734;52.778;6.798;2024-01-30T01:13:45;7.97;;;6.63;;
9388;SDS011;4734;52.778;6.798;2024-01-30T01:16:32;7.73;;;6.83;;
9388;SDS011;4734;52.778;6.798;2024-01-30T01:19:18;13.73;;;7.13;;
9388;SDS011;4734;52.778;6.798;2024-01-30T01:22:03;9.03;;;6.87;;
9388;SDS011;4734;52.778;6.798;2024-01-30T01:24:49;8.63;;;7.03;;
9388;SDS011;4734;52.778;6.798;2024-01-30T01:27:35;8.27;;;6.30;;
9388;SDS011;4734;52.778;6.798;2024-01-30T01:30:24;10.10;;;7.17;;
9388;SDS011;4734;52.778;6.798;2024-01-30T01:33:11;10.20;;;6.57;;
9388;SDS011;4734;52.778;6.798;2024-01-30T01:35:57;7.90;;;7.07;;
9388;SDS011;4734;52.778;6.798;2024-01-30T01:38:43;8.13;;;6.93;;
9388;SDS011;4734;52.778;6.798;2024-01-30T01:41:29;10.80;;;7.03;;
9388;SDS011;4734;52.778;6.798;2024-01-30T01:44:16;8.50;;;6.47;;
9388;SDS011;4734;52.778;6.798;2024-01-30T01:47:02;8.87;;;6.80;;
9388;SDS011;4734;52.778;6.798;2024-01-30T01:49:49;8.40;;;7.00;;
9388;SDS011;4734;52.778;6.798;2024-01-30T01:52:35;8.20;;;6.90;;
9388;SDS011;4734;52.778;6.798;2024-01-30T01:55:22;7.37;;;6.60;;
9388;SDS011;4734;52.778;6.798;2024-01-30T01:58:10;7.33;;;6.63;;
9388;SDS011;4734;52.778;6.798;2024-01-30T02:00:56;7.70;;;6.80;;
9388;SDS011;4734;52.778;6.798;2024-01-30T02:03:43;7.60;;;6.50;;
9388;SDS011;4734;52.778;6.798;2024-01-30T02:06:31;10.20;;;7.03;;
9388;SDS011;4734;52.778;6.798;2024-01-30T02:09:16;8.63;;;6.47;;
9388;SDS011;4734;52.778;6.798;2024-01-30T02:12:02;8.13;;;7.23;;
9388;SDS011;4734;52.778;6.798;2024-01-30T02:14:48;11.63;;;7.27;;
9388;SDS011;4734;52.778;6.798;2024-01-30T02:17:35;10.00;;;6.77;;
9388;SDS011;4734;52.778;6.798;2024-01-30T02:20:20;9.00;;;7.10;;
9388;SDS011;4734;52.778;6.798;2024-01-30T02:23:09;9.80;;;6.83;;
9388;SDS011;4734;52.778;6.798;2024-01-30T02:25:57;7.93;;;6.23;;
9388;SDS011;4734;52.778;6.798;2024-01-30T02:28:42;7.33;;;6.07;;
9388;SDS011;4734;52.778;6.798;2024-01-30T02:31:28;8.87;;;7.73;;
9388;SDS011;4734;52.778;6.798;2024-01-30T02:34:13;9.70;;;7.17;;
9388;SDS011;4734;52.778;6.798;2024-01-30T02:36:59;11.83;;;6.83;;
9388;SDS011;4734;52.778;6.798;2024-01-30T02:39:46;11.30;;;7.30;;
9388;SDS011;4734;52.778;6.798;2024-01-30T02:42:31;13.50;;;6.70;;
9388;SDS011;4734;52.778;6.798;2024-01-30T02:45:17;8.87;;;7.30;;
9388;SDS011;4734;52.778;6.798;2024-01-30T02:48:03;9.73;;;7.17;;
9388;SDS011;4734;52.778;6.798;2024-01-30T02:50:48;12.53;;;7.47;;
9388;SDS011;4734;52.778;6.798;2024-01-30T02:53:34;10.70;;;6.97;;
9388;SDS011;4734;52.778;6.798;2024-01-30T02:56:21;9.30;;;7.30;;
9388;SDS011;4734;52.778;6.798;2024-01-30T02:59:07;8.70;;;7.53;;
9388;SDS011;4734;52.778;6.798;2024-01-30T03:01:52;9.77;;;7.50;;
9388;SDS011;4734;52.778;6.798;2024-01-30T03:04:40;12.67;;;7.17;;
9388;SDS011;4734;52.778;6.798;2024-01-30T03:07:25;8.43;;;7.03;;
9388;SDS011;4734;52.778;6.798;2024-01-30T03:10:11;9.27;;;6.67;;
9388;SDS011;4734;52.778;6.798;2024-01-30T03:12:58;11.87;;;7.17;;
9388;SDS011;4734;52.778;6.798;2024-01-30T03:15:43;12.73;;;7.37;;
9388;SDS011;4734;52.778;6.798;2024-01-30T03:18:29;11.13;;;7.23;;
9388;SDS011;4734;52.778;6.798;2024-01-30T03:21:14;8.03;;;6.87;;
9388;SDS011;4734;52.778;6.798;2024-01-30T03:24:00;8.50;;;7.17;;
9388;SDS011;4734;52.778;6.798;2024-01-30T03:26:45;11.77;;;7.23;;
9388;SDS011;4734;52.778;6.798;2024-01-30T03:29:32;7.90;;;6.60;;
9388;SDS011;4734;52.778;6.798;2024-01-30T03:32:17;9.90;;;7.13;;
9388;SDS011;4734;52.778;6.798;2024-01-30T03:35:03;9.20;;;7.27;;
9388;SDS011;4734;52.778;6.798;2024-01-30T03:37:49;9.73;;;7.30;;
9388;SDS011;4734;52.778;6.798;2024-01-30T03:40:35;8.97;;;6.97;;
9388;SDS011;4734;52.778;6.798;2024-01-30T03:43:20;7.97;;;7.17;;
9388;SDS011;4734;52.778;6.798;2024-01-30T03:46:07;11.27;;;7.53;;
9388;SDS011;4734;52.778;6.798;2024-01-30T03:48:53;11.53;;;7.57;;
9388;SDS011;4734;52.778;6.798;2024-01-30T03:51:38;9.67;;;7.60;;
9388;SDS011;4734;52.778;6.798;2024-01-30T03:54:24;7.93;;;6.70;;
9388;SDS011;4734;52.778;6.798;2024-01-30T03:57:09;8.77;;;7.07;;
9388;SDS011;4734;52.778;6.798;2024-01-30T03:59:55;9.73;;;7.33;;
9388;SDS011;4734;52.778;6.798;2024-01-30T04:02:41;8.13;;;7.20;;
9388;SDS011;4734;52.778;6.798;2024-01-30T04:05:27;9.53;;;7.50;;
9388;SDS011;4734;52.778;6.798;2024-01-30T04:08:13;9.83;;;7.37;;
9388;SDS011;4734;52.778;6.798;2024-01-30T04:10:58;11.43;;;7.77;;
9388;SDS011;4734;52.778;6.798;2024-01-30T04:13:44;9.00;;;7.17;;
9388;SDS011;4734;52.778;6.798;2024-01-30T04:16:30;12.20;;;7.83;;
9388;SDS011;4734;52.778;6.798;2024-01-30T04:19:17;10.83;;;7.67;;
9388;SDS011;4734;52.778;6.798;2024-01-30T04:22:03;9.93;;;6.67;;
9388;SDS011;4734;52.778;6.798;2024-01-30T04:24:48;9.63;;;7.37;;
9388;SDS011;4734;52.778;6.798;2024-01-30T04:27:34;10.20;;;8.23;;
9388;SDS011;4734;52.778;6.798;2024-01-30T04:30:19;16.93;;;8.27;;
9388;SDS011;4734;52.778;6.798;2024-01-30T04:33:05;8.87;;;7.57;;
9388;SDS011;4734;52.778;6.798;2024-01-30T04:35:52;12.50;;;7.53;;
9388;SDS011;4734;52.778;6.798;2024-01-30T04:38:37;11.80;;;8.00;;
9388;SDS011;4734;52.778;6.798;2024-01-30T04:41:23;9.07;;;7.53;;
9388;SDS011;4734;52.778;6.798;2024-01-30T04:44:09;14.50;;;8.17;;
9388;SDS011;4734;52.778;6.798;2024-01-30T04:46:55;11.60;;;8.10;;
9388;SDS011;4734;52.778;6.798;2024-01-30T04:49:42;10.33;;;7.87;;
9388;SDS011;4734;52.778;6.798;2024-01-30T04:52:29;9.40;;;7.23;;
9388;SDS011;4734;52.778;6.798;2024-01-30T04:55:15;9.93;;;7.93;;
9388;SDS011;4734;52.778;6.798;2024-01-30T04:58:00;11.13;;;7.80;;
9388;SDS011;4734;52.778;6.798;2024-01-30T05:00:46;11.73;;;8.20;;
9388;SDS011;4734;52.778;6.798;2024-01-30T05:03:35;9.63;;;8.33;;
9388;SDS011;4734;52.778;6.798;2024-01-30T05:06:24;10.27;;;8.27;;
9388;SDS011;4734;52.778;6.798;2024-01-30T05:09:11;12.53;;;7.80;;
9388;SDS011;4734;52.778;6.798;2024-01-30T05:11:56;9.70;;;6.93;;
9388;SDS011;4734;52.778;6.798;2024-01-30T05:14:42;11.23;;;8.73;;
9388;SDS011;4734;52.778;6.798;2024-01-30T05:17:28;14.60;;;9.07;;
9388;SDS011;4734;52.778;6.798;2024-01-30T05:20:13;14.77;;;9.63;;
9388;SDS011;4734;52.778;6.798;2024-01-30T05:22:59;10.83;;;8.33;;
9388;SDS011;4734;52.778;6.798;2024-01-30T05:25:45;11.40;;;8.53;;
9388;SDS011;4734;52.778;6.798;2024-01-30T05:28:31;10.67;;;8.87;;
9388;SDS011;4734;52.778;6.798;2024-01-30T05:31:17;13.53;;;7.87;;
9388;SDS011;4734;52.778;6.798;2024-01-30T05:34:02;9.37;;;7.77;;
9388;SDS011;4734;52.778;6.798;2024-01-30T05:36:48;11.10;;;8.50;;
9388;SDS011;4734;52.778;6.798;2024-01-30T05:39:34;11.43;;;7.97;;
9388;SDS011;4734;52.778;6.798;2024-01-30T05:42:21;10.13;;;8.00;;
9388;SDS011;4734;52.778;6.798;2024-01-30T05:45:06;11.63;;;8.43;;
9388;SDS011;4734;52.778;6.798;2024-01-30T05:47:52;11.30;;;8.50;;
9388;SDS011;4734;52.778;6.798;2024-01-30T05:50:38;13.47;;;8.97;;
9388;SDS011;4734;52.778;6.798;2024-01-30T05:53:23;11.53;;;8.67;;
9388;SDS011;4734;52.778;6.798;2024-01-30T05:56:09;12.50;;;8.63;;
9388;SDS011;4734;52.778;6.798;2024-01-30T05:58:56;14.33;;;9.40;;
9388;SDS011;4734;52.778;6.798;2024-01-30T06:01:45;12.03;;;8.83;;
9388;SDS011;4734;52.778;6.798;2024-01-30T06:04:31;11.70;;;7.97;;
9388;SDS011;4734;52.778;6.798;2024-01-30T06:07:16;11.07;;;8.00;;
9388;SDS011;4734;52.778;6.798;2024-01-30T06:10:02;9.57;;;7.67;;
9388;SDS011;4734;52.778;6.798;2024-01-30T06:12:48;9.73;;;7.50;;
9388;SDS011;4734;52.778;6.798;2024-01-30T06:15:35;11.63;;;8.47;;
9388;SDS011;4734;52.778;6.798;2024-01-30T06:18:20;10.87;;;8.60;;
9388;SDS011;4734;52.778;6.798;2024-01-30T06:21:06;9.57;;;7.63;;
9388;SDS011;4734;52.778;6.798;2024-01-30T06:23:51;9.27;;;7.70;;
9388;SDS011;4734;52.778;6.798;2024-01-30T06:26:37;10.50;;;8.10;;
9388;SDS011;4734;52.778;6.798;2024-01-30T06:29:22;11.73;;;8.00;;
9388;SDS011;4734;52.778;6.798;2024-01-30T06:32:11;11.20;;;7.90;;
9388;SDS011;4734;52.778;6.798;2024-01-30T06:34:57;10.33;;;7.50;;
9388;SDS011;4734;52.778;6.798;2024-01-30T06:37:43;12.27;;;8.40;;
9388;SDS011;4734;52.778;6.798;2024-01-30T06:40:28;10.97;;;8.10;;
9388;SDS011;4734;52.778;6.798;2024-01-30T06:43:14;10.70;;;8.57;;
9388;SDS011;4734;52.778;6.798;2024-01-30T06:45:59;10.37;;;8.27;;
9388;SDS011;4734;52.778;6.798;2024-01-30T06:48:46;12.23;;;8.20;;
9388;SDS011;4734;52.778;6.798;2024-01-30T06:51:32;9.20;;;7.70;;
9388;SDS011;4734;52.778;6.798;2024-01-30T06:54:17;9.40;;;7.60;;
9388;SDS011;4734;52.778;6.798;2024-01-30T06:57:03;9.20;;;7.30;;
9388;SDS011;4734;52.778;6.798;2024-01-30T06:59:50;10.53;;;7.17;;
9388;SDS011;4734;52.778;6.798;2024-01-30T07:02:36;8.77;;;7.20;;
9388;SDS011;4734;52.778;6.798;2024-01-30T07:05:23;12.80;;;8.17;;
9388;SDS011;4734;52.778;6.798;2024-01-30T07:08:08;9.43;;;7.60;;
9388;SDS011;4734;52.778;6.798;2024-01-30T07:10:54;11.27;;;8.00;;
9388;SDS011;4734;52.778;6.798;2024-01-30T07:13:39;11.50;;;7.67;;
9388;SDS011;4734;52.778;6.798;2024-01-30T07:16:25;12.23;;;7.73;;
9388;SDS011;4734;52.778;6.798;2024-01-30T07:19:10;11.70;;;8.07;;
9388;SDS011;4734;52.778;6.798;2024-01-30T07:21:57;9.00;;;7.30;;
9388;SDS011;4734;52.778;6.798;2024-01-30T07:24:43;12.70;;;6.80;;
9388;SDS011;4734;52.778;6.798;2024-01-30T07:27:31;11.27;;;8.50;;
9388;SDS011;4734;52.778;6.798;2024-01-30T07:30:17;9.80;;;7.83;;
9388;SDS011;4734;52.778;6.798;2024-01-30T07:33:02;10.27;;;8.23;;
9388;SDS011;4734;52.778;6.798;2024-01-30T07:35:48;12.00;;;7.50;;
9388;SDS011;4734;52.778;6.798;2024-01-30T07:38:35;9.37;;;7.20;;
9388;SDS011;4734;52.778;6.798;2024-01-30T07:41:20;10.83;;;8.70;;
9388;SDS011;4734;52.778;6.798;2024-01-30T07:44:06;11.63;;;8.13;;
9388;SDS011;4734;52.778;6.798;2024-01-30T07:46:52;11.40;;;8.73;;
9388;SDS011;4734;52.778;6.798;2024-01-30T07:49:38;9.13;;;7.40;;
9388;SDS011;4734;52.778;6.798;2024-01-30T07:52:24;11.13;;;8.03;;
9388;SDS011;4734;52.778;6.798;2024-01-30T07:55:11;9.20;;;7.00;;
9388;SDS011;4734;52.778;6.798;2024-01-30T07:57:56;11.57;;;7.90;;
9388;SDS011;4734;52.778;6.798;2024-01-30T08:00:42;9.80;;;7.53;;
9388;SDS011;4734;52.778;6.798;2024-01-30T08:03:30;9.30;;;7.40;;
9388;SDS011;4734;52.778;6.798;2024-01-30T08:06:31;8.73;;;6.80;;
9388;SDS011;4734;52.778;6.798;2024-01-30T08:09:41;8.30;;;6.50;;
9388;SDS011;4734;52.778;6.798;2024-01-30T08:12:33;8.47;;;7.27;;
9388;SDS011;4734;52.778;6.798;2024-01-30T08:15:32;11.10;;;7.17;;
9388;SDS011;4734;52.778;6.798;2024-01-30T08:18:17;9.90;;;6.27;;
9388;SDS011;4734;52.778;6.798;2024-01-30T08:21:03;8.80;;;7.37;;
9388;SDS011;4734;52.778;6.798;2024-01-30T08:23:49;8.53;;;6.53;;
9388;SDS011;4734;52.778;6.798;2024-01-30T08:26:35;9.63;;;7.43;;
9388;SDS011;4734;52.778;6.798;2024-01-30T08:29:22;8.97;;;7.37;;
9388;SDS011;4734;52.778;6.798;2024-01-30T08:32:07;9.60;;;7.93;;
9388;SDS011;4734;52.778;6.798;2024-01-30T08:34:53;9.73;;;7.00;;
9388;SDS011;4734;52.778;6.798;2024-01-30T08:37:38;10.10;;;7.37;;
9388;SDS011;4734;52.778;6.798;2024-01-30T08:40:24;10.27;;;7.53;;
9388;SDS011;4734;52.778;6.798;2024-01-30T08:43:10;10.23;;;7.23;;
9388;SDS011;4734;52.778;6.798;2024-01-30T08:45:59;9.60;;;7.27;;
9388;SDS011;4734;52.778;6.798;2024-01-30T08:48:45;9.73;;;7.67;;
9388;SDS011;4734;52.778;6.798;2024-01-30T08:51:31;10.10;;;7.40;;
9388;SDS011;4734;52.778;6.798;2024-01-30T08:54:17;9.20;;;7.20;;
9388;SDS011;4734;52.778;6.798;2024-01-30T08:57:03;9.17;;;6.60;;
9388;SDS011;4734;52.778;6.798;2024-01-30T08:59:52;9.13;;;7.07;;
9388;SDS011;4734;52.778;6.798;2024-01-30T09:02:39;10.97;;;6.80;;
9388;SDS011;4734;52.778;6.798;2024-01-30T09:05:25;8.97;;;7.60;;
9388;SDS011;4734;52.778;6.798;2024-01-30T09:08:10;9.57;;;7.70;;
9388;SDS011;4734;52.778;6.798;2024-01-30T09:10:56;9.70;;;6.80;;
9388;SDS011;4734;52.778;6.798;2024-01-30T09:13:41;10.33;;;7.50;;
9388;SDS011;4734;52.778;6.798;2024-01-30T09:16:27;11.33;;;7.27;;
9388;SDS011;4734;52.778;6.798;2024-01-30T09:19:14;9.40;;;6.60;;
9388;SDS011;4734;52.778;6.798;2024-01-30T09:21:59;12.30;;;7.93;;
9388;SDS011;4734;52.778;6.798;2024-01-30T09:24:44;7.10;;;6.40;;
9388;SDS011;4734;52.778;6.798;2024-01-30T09:27:30;7.13;;;6.30;;
9388;SDS011;4734;52.778;6.798;2024-01-30T09:30:15;8.93;;;6.50;;
9388;SDS011;4734;52.778;6.798;2024-01-30T09:33:01;13.17;;;6.93;;
9388;SDS011;4734;52.778;6.798;2024-01-30T09:35:49;13.97;;;7.37;;
9388;SDS011;4734;52.778;6.798;2024-01-30T09:38:34;9.83;;;7.23;;
9388;SDS011;4734;52.778;6.798;2024-01-30T09:41:20;10.33;;;7.27;;
9388;SDS011;4734;52.778;6.798;2024-01-30T09:44:09;8.53;;;6.90;;
9388;SDS011;4734;52.778;6.798;2024-01-30T09:46:56;8.13;;;6.87;;
9388;SDS011;4734;52.778;6.798;2024-01-30T09:49:47;10.53;;;7.57;;
9388;SDS011;4734;52.778;6.798;2024-01-30T09:52:34;9.20;;;7.90;;
9388;SDS011;4734;52.778;6.798;2024-01-30T09:55:20;9.90;;;6.80;;
9388;SDS011;4734;52.778;6.798;2024-01-30T09:58:06;11.13;;;7.83;;
9388;SDS011;4734;52.778;6.798;2024-01-30T10:00:51;11.47;;;6.53;;
9388;SDS011;4734;52.778;6.798;2024-01-30T10:03:37;8.00;;;6.73;;
9388;SDS011;4734;52.778;6.798;2024-01-30T10:06:24;9.10;;;7.07;;
9388;SDS011;4734;52.778;6.798;2024-01-30T10:09:11;9.60;;;6.90;;
9388;SDS011;4734;52.778;6.798;2024-01-30T10:11:57;9.48;;;6.97;;
9388;SDS011;4734;52.778;6.798;2024-01-30T10:14:43;10.07;;;7.90;;
9388;SDS011;4734;52.778;6.798;2024-01-30T10:17:29;8.75;;;6.60;;
9388;SDS011;4734;52.778;6.798;2024-01-30T10:20:14;8.55;;;6.53;;
9388;SDS011;4734;52.778;6.798;2024-01-30T10:23:01;9.57;;;6.87;;
9388;SDS011;4734;52.778;6.798;2024-01-30T10:25:49;10.32;;;7.05;;
9388;SDS011;4734;52.778;6.798;2024-01-30T10:28:36;8.25;;;6.57;;
9388;SDS011;4734;52.778;6.798;2024-01-30T10:31:21;8.35;;;6.50;;
9388;SDS011;4734;52.778;6.798;2024-01-30T10:34:07;8.20;;;7.30;;
9388;SDS011;4734;52.778;6.798;2024-01-30T10:36:57;9.60;;;7.45;;
9388;SDS011;4734;52.778;6.798;2024-01-30T10:39:52;8.47;;;7.07;;
9388;SDS011;4734;52.778;6.798;2024-01-30T10:42:42;10.23;;;7.55;;
9388;SDS011;4734;52.778;6.798;2024-01-30T10:45:28;9.07;;;6.77;;
9388;SDS011;4734;52.778;6.798;2024-01-30T10:48:15;9.38;;;7.05;;
9388;SDS011;4734;52.778;6.798;2024-01-30T10:51:03;9.45;;;6.55;;
9388;SDS011;4734;52.778;6.798;2024-01-30T10:53:49;9.43;;;6.83;;
9388;SDS011;4734;52.778;6.798;2024-01-30T10:56:35;8.15;;;6.85;;
9388;SDS011;4734;52.778;6.798;2024-01-30T10:59:23;9.48;;;6.65;;
9388;SDS011;4734;52.778;6.798;2024-01-30T11:02:11;14.23;;;6.88;;
9388;SDS011;4734;52.778;6.798;2024-01-30T11:04:59;8.32;;;7.07;;
9388;SDS011;4734;52.778;6.798;2024-01-30T11:07:44;8.52;;;6.60;;
9388;SDS011;4734;52.778;6.798;2024-01-30T11:10:30;11.20;;;8.00;;
9388;SDS011;4734;52.778;6.798;2024-01-30T11:13:18;10.25;;;7.13;;
9388;SDS011;4734;52.778;6.798;2024-01-30T11:16:06;8.60;;;5.90;;
9388;SDS011;4734;52.778;6.798;2024-01-30T11:18:59;10.80;;;6.80;;
9388;SDS011;4734;52.778;6.798;2024-01-30T11:21:45;11.70;;;6.45;;
9388;SDS011;4734;52.778;6.798;2024-01-30T11:24:36;7.85;;;6.57;;
9388;SDS011;4734;52.778;6.798;2024-01-30T11:27:25;8.57;;;7.05;;
9388;SDS011;4734;52.778;6.798;2024-01-30T11:30:22;8.55;;;6.63;;
9388;SDS011;4734;52.778;6.798;2024-01-30T11:33:12;8.23;;;6.15;;
9388;SDS011;4734;52.778;6.798;2024-01-30T11:35:59;8.90;;;7.05;;
9388;SDS011;4734;52.778;6.798;2024-01-30T11:38:46;9.95;;;6.85;;
9388;SDS011;4734;52.778;6.798;2024-01-30T11:41:32;8.13;;;6.55;;
9388;SDS011;4734;52.778;6.798;2024-01-30T11:44:18;11.15;;;7.28;;
9388;SDS011;4734;52.778;6.798;2024-01-30T11:47:05;10.18;;;6.57;;
9388;SDS011;4734;52.778;6.798;2024-01-30T11:49:53;8.43;;;6.82;;
9388;SDS011;4734;52.778;6.798;2024-01-30T11:52:39;11.88;;;6.90;;
9388;SDS011;4734;52.778;6.798;2024-01-30T11:55:27;10.88;;;7.13;;
9388;SDS011;4734;52.778;6.798;2024-01-30T11:58:14;7.53;;;6.38;;
9388;SDS011;4734;52.778;6.798;2024-01-30T12:00:59;8.35;;;6.82;;
9388;SDS011;4734;52.778;6.798;2024-01-30T12:03:49;8.63;;;6.72;;
9388;SDS011;4734;52.778;6.798;2024-01-30T12:06:41;8.85;;;6.97;;
9388;SDS011;4734;52.778;6.798;2024-01-30T12:09:27;10.57;;;7.00;;
9388;SDS011;4734;52.778;6.798;2024-01-30T12:12:12;8.75;;;6.60;;
9388;SDS011;4734;52.778;6.798;2024-01-30T12:14:58;7.75;;;6.95;;
9388;SDS011;4734;52.778;6.798;2024-01-30T12:17:44;10.85;;;7.03;;
9388;SDS011;4734;52.778;6.798;2024-01-30T12:20:30;9.63;;;6.43;;
9388;SDS011;4734;52.778;6.798;2024-01-30T12:23:17;7.00;;;6.13;;
9388;SDS011;4734;52.778;6.798;2024-01-30T12:26:04;8.57;;;7.10;;
9388;SDS011;4734;52.778;6.798;2024-01-30T12:28:51;10.05;;;7.18;;
9388;SDS011;4734;52.778;6.798;2024-01-30T12:31:39;8.27;;;6.72;;
9388;SDS011;4734;52.778;6.798;2024-01-30T12:34:27;8.93;;;6.72;;
9388;SDS011;4734;52.778;6.798;2024-01-30T12:37:13;10.88;;;7.15;;
9388;SDS011;4734;52.778;6.798;2024-01-30T12:40:05;9.63;;;7.45;;
9388;SDS011;4734;52.778;6.798;2024-01-30T12:42:53;10.48;;;7.25;;
9388;SDS011;4734;52.778;6.798;2024-01-30T12:45:40;8.70;;;6.10;;
9388;SDS011;4734;52.778;6.798;2024-01-30T12:48:26;10.18;;;7.55;;
9388;SDS011;4734;52.778;6.798;2024-01-30T12:51:13;10.15;;;6.47;;
9388;SDS011;4734;52.778;6.798;2024-01-30T12:54:03;11.85;;;6.43;;
9388;SDS011;4734;52.778;6.798;2024-01-30T12:56:51;6.85;;;5.97;;
9388;SDS011;4734;52.778;6.798;2024-01-30T12:59:37;5.93;;;5.22;;
9388;SDS011;4734;52.778;6.798;2024-01-30T13:02:23;7.10;;;6.32;;
9388;SDS011;4734;52.778;6.798;2024-01-30T13:05:10;9.10;;;6.68;;
9388;SDS011;4734;52.778;6.798;2024-01-30T13:07:56;9.90;;;5.97;;
9388;SDS011;4734;52.778;6.798;2024-01-30T13:10:42;10.00;;;6.35;;
9388;SDS011;4734;52.778;6.798;2024-01-30T13:13:30;12.25;;;5.45;;
9388;SDS011;4734;52.778;6.798;2024-01-30T13:16:16;8.35;;;4.70;;
9388;SDS011;4734;52.778;6.798;2024-01-30T13:19:01;7.13;;;4.50;;
9388;SDS011;4734;52.778;6.798;2024-01-30T13:21:47;8.10;;;4.50;;
9388;SDS011;4734;52.778;6.798;2024-01-30T13:24:33;7.97;;;4.22;;
9388;SDS011;4734;52.778;6.798;2024-01-30T13:27:19;5.45;;;3.58;;
9388;SDS011;4734;52.778;6.798;2024-01-30T13:30:08;6.78;;;2.88;;
9388;SDS011;4734;52.778;6.798;2024-01-30T13:32:54;3.05;;;2.47;;
9388;SDS011;4734;52.778;6.798;2024-01-30T13:35:39;3.33;;;2.88;;
9388;SDS011;4734;52.778;6.798;2024-01-30T13:38:26;3.58;;;2.70;;
9388;SDS011;4734;52.778;6.798;2024-01-30T13:41:12;3.28;;;2.13;;
9388;SDS011;4734;52.778;6.798;2024-01-30T13:43:58;3.05;;;2.78;;
9388;SDS011;4734;52.778;6.798;2024-01-30T13:46:50;5.07;;;2.83;;
9388;SDS011;4734;52.778;6.798;2024-01-30T13:49:36;4.07;;;2.55;;
9388;SDS011;4734;52.778;6.798;2024-01-30T13:52:21;2.80;;;2.33;;
9388;SDS011;4734;52.778;6.798;2024-01-30T13:55:07;2.30;;;2.10;;
9388;SDS011;4734;52.778;6.798;2024-01-30T13:57:53;3.50;;;2.35;;
9388;SDS011;4734;52.778;6.798;2024-01-30T14:00:39;2.70;;;2.20;;
9388;SDS011;4734;52.778;6.798;2024-01-30T14:03:27;2.40;;;2.13;;
9388;SDS011;4734;52.778;6.798;2024-01-30T14:06:13;2.47;;;2.10;;
9388;SDS011;4734;52.778;6.798;2024-01-30T14:08:59;2.20;;;2.00;;
9388;SDS011;4734;52.778;6.798;2024-01-30T14:11:44;2.53;;;2.30;;
9388;SDS011;4734;52.778;6.798;2024-01-30T14:14:30;2.17;;;1.98;;
9388;SDS011;4734;52.778;6.798;2024-01-30T14:17:16;3.60;;;1.98;;
9388;SDS011;4734;52.778;6.798;2024-01-30T14:20:03;1.48;;;1.38;;
9388;SDS011;4734;52.778;6.798;2024-01-30T14:22:49;2.38;;;1.73;;
9388;SDS011;4734;52.778;6.798;2024-01-30T14:25:35;2.25;;;1.67;;
9388;SDS011;4734;52.778;6.798;2024-01-30T14:28:20;6.82;;;3.38;;
9388;SDS011;4734;52.778;6.798;2024-01-30T14:31:06;2.03;;;1.40;;
9388;SDS011;4734;52.778;6.798;2024-01-30T14:33:51;1.98;;;1.75;;
9388;SDS011;4734;52.778;6.798;2024-01-30T14:36:40;1.48;;;1.42;;
9388;SDS011;4734;52.778;6.798;2024-01-30T14:39:26;1.48;;;1.38;;
9388;SDS011;4734;52.778;6.798;2024-01-30T14:42:12;2.22;;;1.60;;
9388;SDS011;4734;52.778;6.798;2024-01-30T14:44:58;2.10;;;1.52;;
9388;SDS011;4734;52.778;6.798;2024-01-30T14:47:44;1.63;;;1.50;;
9388;SDS011;4734;52.778;6.798;2024-01-30T14:50:30;2.25;;;1.50;;
9388;SDS011;4734;52.778;6.798;2024-01-30T14:53:17;2.75;;;1.98;;
9388;SDS011;4734;52.778;6.798;2024-01-30T14:56:03;2.33;;;2.00;;
9388;SDS011;4734;52.778;6.798;2024-01-30T14:58:49;2.63;;;2.00;;
9388;SDS011;4734;52.778;6.798;2024-01-30T15:01:35;1.88;;;1.70;;
9388;SDS011;4734;52.778;6.798;2024-01-30T15:04:21;1.73;;;1.63;;
9388;SDS011;4734;52.778;6.798;2024-01-30T15:07:07;2.63;;;1.70;;
9388;SDS011;4734;52.778;6.798;2024-01-30T15:09:54;3.38;;;1.40;;
9388;SDS011;4734;52.778;6.798;2024-01-30T15:12:40;1.02;;;1.02;;
9388;SDS011;4734;52.778;6.798;2024-01-30T15:15:25;2.78;;;1.30;;
9388;SDS011;4734;52.778;6.798;2024-01-30T15:18:12;1.40;;;1.30;;
9388;SDS011;4734;52.778;6.798;2024-01-30T15:20:57;1.30;;;1.20;;
9388;SDS011;4734;52.778;6.798;2024-01-30T15:23:43;2.60;;;1.45;;
9388;SDS011;4734;52.778;6.798;2024-01-30T15:26:29;1.30;;;1.20;;
9388;SDS011;4734;52.778;6.798;2024-01-30T15:29:15;1.60;;;1.50;;
9388;SDS011;4734;52.778;6.798;2024-01-30T15:32:01;1.35;;;1.25;;
9388;SDS011;4734;52.778;6.798;2024-01-30T15:34:46;1.17;;;1.17;;
9388;SDS011;4734;52.778;6.798;2024-01-30T15:37:32;2.55;;;1.25;;
9388;SDS011;4734;52.778;6.798;2024-01-30T15:40:17;2.90;;;1.50;;
9388;SDS011;4734;52.778;6.798;2024-01-30T15:43:04;2.45;;;1.60;;
9388;SDS011;4734;52.778;6.798;2024-01-30T15:45:50;2.22;;;2.03;;
9388;SDS011;4734;52.778;6.798;2024-01-30T15:48:35;1.75;;;1.50;;
9388;SDS011;4734;52.778;6.798;2024-01-30T15:51:20;1.70;;;1.60;;
9388;SDS011;4734;52.778;6.798;2024-01-30T15:54:06;1.63;;;1.48;;
9388;SDS011;4734;52.778;6.798;2024-01-30T15:56:51;2.35;;;1.85;;
9388;SDS011;4734;52.778;6.798;2024-01-30T15:59:38;1.83;;;1.70;;
9388;SDS011;4734;52.778;6.798;2024-01-30T16:02:24;2.97;;;2.03;;
9388;SDS011;4734;52.778;6.798;2024-01-30T16:05:12;2.88;;;1.70;;
9388;SDS011;4734;52.778;6.798;2024-01-30T16:07:58;2.30;;;2.10;;
9388;SDS011;4734;52.778;6.798;2024-01-30T16:10:44;1.85;;;1.60;;
9388;SDS011;4734;52.778;6.798;2024-01-30T16:13:29;1.77;;;1.67;;
9388;SDS011;4734;52.778;6.798;2024-01-30T16:16:16;1.95;;;1.85;;
9388;SDS011;4734;52.778;6.798;2024-01-30T16:19:02;3.38;;;1.58;;
9388;SDS011;4734;52.778;6.798;2024-01-30T16:21:47;1.55;;;1.35;;
9388;SDS011;4734;52.778;6.798;2024-01-30T16:24:33;1.88;;;1.77;;
9388;SDS011;4734;52.778;6.798;2024-01-30T16:27:18;1.70;;;1.60;;
9388;SDS011;4734;52.778;6.798;2024-01-30T16:30:04;2.33;;;1.80;;
9388;SDS011;4734;52.778;6.798;2024-01-30T16:32:52;2.33;;;2.17;;
9388;SDS011;4734;52.778;6.798;2024-01-30T16:35:37;2.55;;;2.05;;
9388;SDS011;4734;52.778;6.798;2024-01-30T16:38:24;2.10;;;2.00;;
9388;SDS011;4734;52.778;6.798;2024-01-30T16:41:09;2.13;;;2.03;;
9388;SDS011;4734;52.778;6.798;2024-01-30T16:43:55;1.92;;;1.83;;
9388;SDS011;4734;52.778;6.798;2024-01-30T16:46:41;2.20;;;2.08;;
9388;SDS011;4734;52.778;6.798;2024-01-30T16:49:28;2.20;;;2.10;;
9388;SDS011;4734;52.778;6.798;2024-01-30T16:52:13;2.47;;;2.28;;
9388;SDS011;4734;52.778;6.798;2024-01-30T16:54:59;3.35;;;2.65;;
9388;SDS011;4734;52.778;6.798;2024-01-30T16:57:45;2.50;;;2.30;;
9388;SDS011;4734;52.778;6.798;2024-01-30T17:00:30;2.60;;;2.40;;
9388;SDS011;4734;52.778;6.798;2024-01-30T17:03:16;2.58;;;2.38;;
9388;SDS011;4734;52.778;6.798;2024-01-30T17:06:03;3.28;;;2.97;;
9388;SDS011;4734;52.778;6.798;2024-01-30T17:08:52;2.70;;;2.45;;